sensor_id;sensor_type;location;lat;lon;timestamp;temperature;humidity
15749;DHT22;7976;52.526;13.326;2023-04-25T00:01:45;9.90;99.90
15749;DHT22;7976;52.526;13.326;2023-04-25T00:04:11;10.00;99.90
15749;DHT22;7976;52.526;13.326;2023-04-25T00:06:38;10.00;99.90
15749;DHT22;7976;52.526;13.326;2023-04-25T00:09:06;10.00;99.90
15749;DHT22;7976;52.526;13.326;2023-04-25T00:11:34;10.00;99.90
15749;DHT22;7976;52.526;13.326;2023-04-25T00:14:03;10.10;99.90
15749;DHT22;7976;52.526;13.326;2023-04-25T00:16:31;10.10;99.90
15749;DHT22;7976;52.526;13.326;2023-04-25T00:19:00;10.10;99.90
15749;DHT22;7976;52.526;13.326;2023-04-25T00:21:31;10.00;99.90
15749;DHT22;7976;52.526;13.326;2023-04-25T00:23:59;10.00;99.90
15749;DHT22;7976;52.526;13.326;2023-04-25T00:26:27;10.00;99.90
15749;DHT22;7976;52.526;13.326;2023-04-25T00:28:54;10.00;99.90
15749;DHT22;7976;52.526;13.326;2023-04-25T00:31:21;10.00;99.90
15749;DHT22;7976;52.526;13.326;2023-04-25T00:33:49;9.90;99.90
15749;DHT22;7976;52.526;13.326;2023-04-25T00:36:16;9.90;99.90
15749;DHT22;7976;52.526;13.326;2023-04-25T00:38:43;9.90;99.90
15749;DHT22;7976;52.526;13.326;2023-04-25T00:41:10;9.90;99.90
15749;DHT22;7976;52.526;13.326;2023-04-25T00:43:39;9.90;99.90
15749;DHT22;7976;52.526;13.326;2023-04-25T00:46:07;9.90;99.90
15749;DHT22;7976;52.526;13.326;2023-04-25T00:48:34;9.90;99.90
15749;DHT22;7976;52.526;13.326;2023-04-25T00:51:02;9.80;99.90
15749;DHT22;7976;52.526;13.326;2023-04-25T00:53:30;9.90;99.90
15749;DHT22;7976;52.526;13.326;2023-04-25T00:55:58;9.90;99.90
15749;DHT22;7976;52.526;13.326;2023-04-25T00:58:25;9.80;99.90
15749;DHT22;7976;52.526;13.326;2023-04-25T01:00:52;9.80;99.90
15749;DHT22;7976;52.526;13.326;2023-04-25T01:03:19;9.80;99.90
15749;DHT22;7976;52.526;13.326;2023-04-25T01:05:47;9.80;99.90
15749;DHT22;7976;52.526;13.326;2023-04-25T01:08:15;9.80;99.90
15749;DHT22;7976;52.526;13.326;2023-04-25T01:10:42;9.80;99.90
15749;DHT22;7976;52.526;13.326;2023-04-25T01:13:09;9.80;99.90
15749;DHT22;7976;52.526;13.326;2023-04-25T01:15:36;9.80;99.90
15749;DHT22;7976;52.526;13.326;2023-04-25T01:18:05;9.80;99.90
15749;DHT22;7976;52.526;13.326;2023-04-25T01:20:33;9.70;99.90
15749;DHT22;7976;52.526;13.326;2023-04-25T01:23:02;9.80;99.90
15749;DHT22;7976;52.526;13.326;2023-04-25T01:25:29;9.80;99.90
15749;DHT22;7976;52.526;13.326;2023-04-25T01:27:57;9.80;99.90
15749;DHT22;7976;52.526;13.326;2023-04-25T01:30:26;9.80;99.90
15749;DHT22;7976;52.526;13.326;2023-04-25T01:32:55;9.80;99.90
15749;DHT22;7976;52.526;13.326;2023-04-25T01:35:23;9.70;99.90
15749;DHT22;7976;52.526;13.326;2023-04-25T01:37:53;9.80;99.90
15749;DHT22;7976;52.526;13.326;2023-04-25T01:40:22;9.80;99.90
15749;DHT22;7976;52.526;13.326;2023-04-25T01:42:50;9.80;99.90
15749;DHT22;7976;52.526;13.326;2023-04-25T01:45:18;9.80;99.90
15749;DHT22;7976;52.526;13.326;2023-04-25T01:47:45;9.80;99.90
15749;DHT22;7976;52.526;13.326;2023-04-25T01:50:15;9.80;99.90
15749;DHT22;7976;52.526;13.326;2023-04-25T01:52:43;9.80;99.90
15749;DHT22;7976;52.526;13.326;2023-04-25T01:55:11;9.80;99.90
15749;DHT22;7976;52.526;13.326;2023-04-25T01:57:46;9.80;99.90
15749;DHT22;7976;52.526;13.326;2023-04-25T02:00:14;9.80;99.90
15749;DHT22;7976;52.526;13.326;2023-04-25T02:02:40;9.80;99.90
15749;DHT22;7976;52.526;13.326;2023-04-25T02:05:18;9.80;99.90
15749;DHT22;7976;52.526;13.326;2023-04-25T02:07:46;9.80;99.90
15749;DHT22;7976;52.526;13.326;2023-04-25T02:10:13;9.80;99.90
15749;DHT22;7976;52.526;13.326;2023-04-25T02:12:55;9.80;99.90
15749;DHT22;7976;52.526;13.326;2023-04-25T02:15:36;9.80;99.90
15749;DHT22;7976;52.526;13.326;2023-04-25T02:18:13;9.70;99.90
15749;DHT22;7976;52.526;13.326;2023-04-25T02:20:42;9.70;99.90
15749;DHT22;7976;52.526;13.326;2023-04-25T02:23:09;9.70;99.90
15749;DHT22;7976;52.526;13.326;2023-04-25T02:25:36;9.60;99.90
15749;DHT22;7976;52.526;13.326;2023-04-25T02:28:04;9.60;99.90
15749;DHT22;7976;52.526;13.326;2023-04-25T02:30:31;9.60;99.90
15749;DHT22;7976;52.526;13.326;2023-04-25T02:32:59;9.60;99.90
15749;DHT22;7976;52.526;13.326;2023-04-25T02:35:26;9.60;99.90
15749;DHT22;7976;52.526;13.326;2023-04-25T02:37:53;9.60;99.90
15749;DHT22;7976;52.526;13.326;2023-04-25T02:40:20;9.60;99.90
15749;DHT22;7976;52.526;13.326;2023-04-25T02:42:47;9.60;99.90
15749;DHT22;7976;52.526;13.326;2023-04-25T02:45:15;9.60;99.90
15749;DHT22;7976;52.526;13.326;2023-04-25T02:47:42;9.60;99.90
15749;DHT22;7976;52.526;13.326;2023-04-25T02:50:10;9.60;99.90
15749;DHT22;7976;52.526;13.326;2023-04-25T02:52:39;9.60;99.90
15749;DHT22;7976;52.526;13.326;2023-04-25T02:55:14;9.60;99.90
15749;DHT22;7976;52.526;13.326;2023-04-25T02:57:41;9.60;99.90
15749;DHT22;7976;52.526;13.326;2023-04-25T03:00:12;9.50;99.90
15749;DHT22;7976;52.526;13.326;2023-04-25T03:02:41;9.50;99.90
15749;DHT22;7976;52.526;13.326;2023-04-25T03:05:08;9.50;99.90
15749;DHT22;7976;52.526;13.326;2023-04-25T03:07:35;9.50;99.90
15749;DHT22;7976;52.526;13.326;2023-04-25T03:10:05;9.50;99.90
15749;DHT22;7976;52.526;13.326;2023-04-25T03:12:34;9.50;99.90
15749;DHT22;7976;52.526;13.326;2023-04-25T03:15:01;9.50;99.90
15749;DHT22;7976;52.526;13.326;2023-04-25T03:17:30;9.50;99.90
15749;DHT22;7976;52.526;13.326;2023-04-25T03:20:00;9.50;99.90
15749;DHT22;7976;52.526;13.326;2023-04-25T03:22:28;9.50;99.90
15749;DHT22;7976;52.526;13.326;2023-04-25T03:24:55;9.40;99.90
15749;DHT22;7976;52.526;13.326;2023-04-25T03:27:22;9.40;99.90
15749;DHT22;7976;52.526;13.326;2023-04-25T03:29:50;9.40;99.90
15749;DHT22;7976;52.526;13.326;2023-04-25T03:32:18;9.40;99.90
15749;DHT22;7976;52.526;13.326;2023-04-25T03:34:47;9.40;99.90
15749;DHT22;7976;52.526;13.326;2023-04-25T03:37:13;9.40;99.90
15749;DHT22;7976;52.526;13.326;2023-04-25T03:39:40;9.40;99.90
15749;DHT22;7976;52.526;13.326;2023-04-25T03:42:07;9.40;99.90
15749;DHT22;7976;52.526;13.326;2023-04-25T03:44:34;9.40;99.90
15749;DHT22;7976;52.526;13.326;2023-04-25T03:47:01;9.40;99.90
15749;DHT22;7976;52.526;13.326;2023-04-25T03:49:28;9.40;99.90
15749;DHT22;7976;52.526;13.326;2023-04-25T03:52:04;9.40;99.90
15749;DHT22;7976;52.526;13.326;2023-04-25T03:54:36;9.40;99.90
15749;DHT22;7976;52.526;13.326;2023-04-25T03:57:09;9.40;99.90
15749;DHT22;7976;52.526;13.326;2023-04-25T03:59:38;9.40;99.90
15749;DHT22;7976;52.526;13.326;2023-04-25T04:02:07;9.40;99.90
15749;DHT22;7976;52.526;13.326;2023-04-25T04:04:35;9.40;99.90
15749;DHT22;7976;52.526;13.326;2023-04-25T04:07:04;9.40;99.90
15749;DHT22;7976;52.526;13.326;2023-04-25T04:09:34;9.40;99.90
15749;DHT22;7976;52.526;13.326;2023-04-25T04:12:06;9.40;99.90
15749;DHT22;7976;52.526;13.326;2023-04-25T04:14:34;9.40;99.90
15749;DHT22;7976;52.526;13.326;2023-04-25T04:17:01;9.40;99.90
15749;DHT22;7976;52.526;13.326;2023-04-25T04:19:28;9.40;99.90
15749;DHT22;7976;52.526;13.326;2023-04-25T04:22:05;9.40;99.90
15749;DHT22;7976;52.526;13.326;2023-04-25T04:24:31;9.50;99.90
15749;DHT22;7976;52.526;13.326;2023-04-25T04:27:02;9.50;99.90
15749;DHT22;7976;52.526;13.326;2023-04-25T04:29:35;9.50;99.90
15749;DHT22;7976;52.526;13.326;2023-04-25T04:32:15;9.50;99.90
15749;DHT22;7976;52.526;13.326;2023-04-25T04:34:42;9.50;99.90
15749;DHT22;7976;52.526;13.326;2023-04-25T04:37:14;9.50;99.90
15749;DHT22;7976;52.526;13.326;2023-04-25T04:39:42;9.50;99.90
15749;DHT22;7976;52.526;13.326;2023-04-25T04:42:28;9.60;99.90
15749;DHT22;7976;52.526;13.326;2023-04-25T04:45:03;9.60;99.90
15749;DHT22;7976;52.526;13.326;2023-04-25T04:47:43;9.60;99.90
15749;DHT22;7976;52.526;13.326;2023-04-25T04:50:16;9.60;99.90
15749;DHT22;7976;52.526;13.326;2023-04-25T04:53:20;9.60;99.90
15749;DHT22;7976;52.526;13.326;2023-04-25T04:55:58;9.60;99.90
15749;DHT22;7976;52.526;13.326;2023-04-25T04:58:32;9.60;99.90
15749;DHT22;7976;52.526;13.326;2023-04-25T05:01:25;9.70;99.90
15749;DHT22;7976;52.526;13.326;2023-04-25T05:03:55;9.70;99.90
15749;DHT22;7976;52.526;13.326;2023-04-25T05:06:44;9.70;99.90
15749;DHT22;7976;52.526;13.326;2023-04-25T05:09:32;9.70;99.90
15749;DHT22;7976;52.526;13.326;2023-04-25T05:12:32;9.80;99.90
15749;DHT22;7976;52.526;13.326;2023-04-25T05:15:18;9.80;99.90
15749;DHT22;7976;52.526;13.326;2023-04-25T05:18:04;9.80;99.90
15749;DHT22;7976;52.526;13.326;2023-04-25T05:20:44;9.90;99.90
15749;DHT22;7976;52.526;13.326;2023-04-25T05:23:30;9.90;99.90
15749;DHT22;7976;52.526;13.326;2023-04-25T05:26:23;9.90;99.90
15749;DHT22;7976;52.526;13.326;2023-04-25T05:29:23;9.90;99.90
15749;DHT22;7976;52.526;13.326;2023-04-25T05:32:01;9.90;99.90
15749;DHT22;7976;52.526;13.326;2023-04-25T05:34:28;9.90;99.90
15749;DHT22;7976;52.526;13.326;2023-04-25T05:36:58;9.90;99.90
15749;DHT22;7976;52.526;13.326;2023-04-25T05:39:25;9.90;99.90
15749;DHT22;7976;52.526;13.326;2023-04-25T05:42:08;9.90;99.90
15749;DHT22;7976;52.526;13.326;2023-04-25T05:44:59;9.90;99.90
15749;DHT22;7976;52.526;13.326;2023-04-25T05:47:45;9.90;99.90
15749;DHT22;7976;52.526;13.326;2023-04-25T05:50:17;9.90;99.90
15749;DHT22;7976;52.526;13.326;2023-04-25T05:52:51;9.90;99.90
15749;DHT22;7976;52.526;13.326;2023-04-25T05:55:28;9.90;99.90
15749;DHT22;7976;52.526;13.326;2023-04-25T05:57:58;9.80;99.90
15749;DHT22;7976;52.526;13.326;2023-04-25T06:00:25;9.80;99.90
15749;DHT22;7976;52.526;13.326;2023-04-25T06:02:52;9.90;99.90
15749;DHT22;7976;52.526;13.326;2023-04-25T06:05:20;9.90;99.90
15749;DHT22;7976;52.526;13.326;2023-04-25T06:07:47;9.90;99.90
15749;DHT22;7976;52.526;13.326;2023-04-25T06:10:14;10.00;99.90
15749;DHT22;7976;52.526;13.326;2023-04-25T06:12:41;10.10;99.90
15749;DHT22;7976;52.526;13.326;2023-04-25T06:15:10;10.20;99.90
15749;DHT22;7976;52.526;13.326;2023-04-25T06:17:37;10.20;99.90
15749;DHT22;7976;52.526;13.326;2023-04-25T06:20:07;10.20;99.90
15749;DHT22;7976;52.526;13.326;2023-04-25T06:22:39;10.30;99.90
15749;DHT22;7976;52.526;13.326;2023-04-25T06:25:07;10.30;99.90
15749;DHT22;7976;52.526;13.326;2023-04-25T06:27:34;10.30;99.90
15749;DHT22;7976;52.526;13.326;2023-04-25T06:30:02;10.30;99.90
15749;DHT22;7976;52.526;13.326;2023-04-25T06:32:32;10.20;99.90
15749;DHT22;7976;52.526;13.326;2023-04-25T06:35:00;10.20;99.90
15749;DHT22;7976;52.526;13.326;2023-04-25T06:37:27;10.30;99.90
15749;DHT22;7976;52.526;13.326;2023-04-25T06:39:55;10.20;99.90
15749;DHT22;7976;52.526;13.326;2023-04-25T06:42:22;10.20;99.90
15749;DHT22;7976;52.526;13.326;2023-04-25T06:44:52;10.30;99.90
15749;DHT22;7976;52.526;13.326;2023-04-25T06:47:20;10.20;99.90
15749;DHT22;7976;52.526;13.326;2023-04-25T06:49:49;10.20;99.90
15749;DHT22;7976;52.526;13.326;2023-04-25T06:52:16;10.10;99.90
15749;DHT22;7976;52.526;13.326;2023-04-25T06:54:44;10.10;99.90
15749;DHT22;7976;52.526;13.326;2023-04-25T06:57:34;10.10;99.90
15749;DHT22;7976;52.526;13.326;2023-04-25T07:00:21;10.20;99.90
15749;DHT22;7976;52.526;13.326;2023-04-25T07:02:48;10.10;99.90
15749;DHT22;7976;52.526;13.326;2023-04-25T07:05:17;10.10;99.90
15749;DHT22;7976;52.526;13.326;2023-04-25T07:07:44;10.20;99.90
15749;DHT22;7976;52.526;13.326;2023-04-25T07:10:11;10.10;99.90
15749;DHT22;7976;52.526;13.326;2023-04-25T07:12:38;10.10;99.90
15749;DHT22;7976;52.526;13.326;2023-04-25T07:15:06;10.10;99.90
15749;DHT22;7976;52.526;13.326;2023-04-25T07:17:35;10.00;99.90
15749;DHT22;7976;52.526;13.326;2023-04-25T07:20:03;9.90;99.90
15749;DHT22;7976;52.526;13.326;2023-04-25T07:22:32;9.90;99.90
15749;DHT22;7976;52.526;13.326;2023-04-25T07:25:00;9.90;99.90
15749;DHT22;7976;52.526;13.326;2023-04-25T07:27:28;9.90;99.90
15749;DHT22;7976;52.526;13.326;2023-04-25T07:30:01;10.00;99.90
15749;DHT22;7976;52.526;13.326;2023-04-25T07:32:29;10.10;99.90
15749;DHT22;7976;52.526;13.326;2023-04-25T07:34:56;10.10;99.90
15749;DHT22;7976;52.526;13.326;2023-04-25T07:37:23;10.20;99.90
15749;DHT22;7976;52.526;13.326;2023-04-25T07:40:03;10.30;99.90
15749;DHT22;7976;52.526;13.326;2023-04-25T07:42:32;10.40;99.90
15749;DHT22;7976;52.526;13.326;2023-04-25T07:44:59;10.40;99.90
15749;DHT22;7976;52.526;13.326;2023-04-25T07:47:26;10.50;99.90
15749;DHT22;7976;52.526;13.326;2023-04-25T07:49:53;10.50;99.90
15749;DHT22;7976;52.526;13.326;2023-04-25T07:52:21;10.50;99.90
15749;DHT22;7976;52.526;13.326;2023-04-25T07:54:53;10.50;99.90
15749;DHT22;7976;52.526;13.326;2023-04-25T07:57:29;10.50;99.90
15749;DHT22;7976;52.526;13.326;2023-04-25T07:59:57;10.60;99.90
15749;DHT22;7976;52.526;13.326;2023-04-25T08:02:25;10.70;99.90
15749;DHT22;7976;52.526;13.326;2023-04-25T08:04:57;10.80;99.90
15749;DHT22;7976;52.526;13.326;2023-04-25T08:07:24;10.90;99.90
15749;DHT22;7976;52.526;13.326;2023-04-25T08:09:54;11.00;99.90
15749;DHT22;7976;52.526;13.326;2023-04-25T08:12:26;11.00;99.90
15749;DHT22;7976;52.526;13.326;2023-04-25T08:14:54;11.10;99.90
15749;DHT22;7976;52.526;13.326;2023-04-25T08:17:23;11.10;99.90
15749;DHT22;7976;52.526;13.326;2023-04-25T08:19:50;11.10;99.90
15749;DHT22;7976;52.526;13.326;2023-04-25T08:22:24;11.10;99.90
15749;DHT22;7976;52.526;13.326;2023-04-25T08:24:57;11.20;99.90
15749;DHT22;7976;52.526;13.326;2023-04-25T08:27:24;11.30;99.90
15749;DHT22;7976;52.526;13.326;2023-04-25T08:29:51;11.40;99.90
15749;DHT22;7976;52.526;13.326;2023-04-25T08:32:20;11.50;99.90
15749;DHT22;7976;52.526;13.326;2023-04-25T08:35:08;11.60;99.90
15749;DHT22;7976;52.526;13.326;2023-04-25T08:37:36;11.70;99.90
15749;DHT22;7976;52.526;13.326;2023-04-25T08:40:12;11.70;99.90
15749;DHT22;7976;52.526;13.326;2023-04-25T08:42:55;11.70;99.90
15749;DHT22;7976;52.526;13.326;2023-04-25T08:45:23;11.70;99.90
15749;DHT22;7976;52.526;13.326;2023-04-25T08:47:54;11.70;99.90
15749;DHT22;7976;52.526;13.326;2023-04-25T08:50:23;11.90;99.90
15749;DHT22;7976;52.526;13.326;2023-04-25T08:52:53;12.00;99.90
15749;DHT22;7976;52.526;13.326;2023-04-25T08:55:25;12.10;99.90
15749;DHT22;7976;52.526;13.326;2023-04-25T08:57:57;12.20;99.90
15749;DHT22;7976;52.526;13.326;2023-04-25T09:00:27;12.30;99.90
15749;DHT22;7976;52.526;13.326;2023-04-25T09:02:57;12.40;99.90
15749;DHT22;7976;52.526;13.326;2023-04-25T09:05:29;12.50;99.90
15749;DHT22;7976;52.526;13.326;2023-04-25T09:07:56;12.70;99.90
15749;DHT22;7976;52.526;13.326;2023-04-25T09:10:23;12.90;99.90
15749;DHT22;7976;52.526;13.326;2023-04-25T09:13:06;13.00;99.90
15749;DHT22;7976;52.526;13.326;2023-04-25T09:16:01;13.10;99.90
15749;DHT22;7976;52.526;13.326;2023-04-25T09:18:52;13.00;99.90
15749;DHT22;7976;52.526;13.326;2023-04-25T09:21:22;12.90;99.90
15749;DHT22;7976;52.526;13.326;2023-04-25T09:23:49;12.90;99.90
15749;DHT22;7976;52.526;13.326;2023-04-25T09:26:19;12.90;99.90
15749;DHT22;7976;52.526;13.326;2023-04-25T09:28:48;12.90;99.90
15749;DHT22;7976;52.526;13.326;2023-04-25T09:31:21;12.80;99.90
15749;DHT22;7976;52.526;13.326;2023-04-25T09:33:50;12.80;99.90
15749;DHT22;7976;52.526;13.326;2023-04-25T09:36:29;13.00;99.90
15749;DHT22;7976;52.526;13.326;2023-04-25T09:39:16;13.00;99.90
15749;DHT22;7976;52.526;13.326;2023-04-25T09:41:53;13.10;99.90
15749;DHT22;7976;52.526;13.326;2023-04-25T09:44:23;13.10;99.90
15749;DHT22;7976;52.526;13.326;2023-04-25T09:46:51;13.10;99.90
15749;DHT22;7976;52.526;13.326;2023-04-25T09:49:22;13.10;99.90
15749;DHT22;7976;52.526;13.326;2023-04-25T09:51:59;13.20;99.90
15749;DHT22;7976;52.526;13.326;2023-04-25T09:54:32;13.10;99.90
15749;DHT22;7976;52.526;13.326;2023-04-25T09:57:13;13.00;99.90
15749;DHT22;7976;52.526;13.326;2023-04-25T09:59:46;12.90;99.90
15749;DHT22;7976;52.526;13.326;2023-04-25T10:02:15;12.90;99.90
15749;DHT22;7976;52.526;13.326;2023-04-25T10:04:49;13.10;99.90
15749;DHT22;7976;52.526;13.326;2023-04-25T10:07:31;13.20;99.90
15749;DHT22;7976;52.526;13.326;2023-04-25T10:10:02;13.30;99.90
15749;DHT22;7976;52.526;13.326;2023-04-25T10:12:30;13.40;99.90
15749;DHT22;7976;52.526;13.326;2023-04-25T10:14:59;13.40;99.90
15749;DHT22;7976;52.526;13.326;2023-04-25T10:17:27;13.60;99.90
15749;DHT22;7976;52.526;13.326;2023-04-25T10:19:55;13.70;99.90
15749;DHT22;7976;52.526;13.326;2023-04-25T10:22:29;13.60;99.90
15749;DHT22;7976;52.526;13.326;2023-04-25T10:24:59;13.70;99.90
15749;DHT22;7976;52.526;13.326;2023-04-25T10:27:29;13.70;99.90
15749;DHT22;7976;52.526;13.326;2023-04-25T10:30:03;13.50;99.90
15749;DHT22;7976;52.526;13.326;2023-04-25T10:32:35;13.30;99.90
15749;DHT22;7976;52.526;13.326;2023-04-25T10:35:14;13.00;99.90
15749;DHT22;7976;52.526;13.326;2023-04-25T10:38:03;13.00;99.90
15749;DHT22;7976;52.526;13.326;2023-04-25T10:40:31;13.10;99.90
15749;DHT22;7976;52.526;13.326;2023-04-25T10:43:33;13.40;99.90
15749;DHT22;7976;52.526;13.326;2023-04-25T10:46:02;13.50;99.90
15749;DHT22;7976;52.526;13.326;2023-04-25T10:48:31;13.40;99.90
15749;DHT22;7976;52.526;13.326;2023-04-25T10:51:09;13.30;99.90
15749;DHT22;7976;52.526;13.326;2023-04-25T10:53:36;13.30;99.90
15749;DHT22;7976;52.526;13.326;2023-04-25T10:56:10;13.30;99.90
15749;DHT22;7976;52.526;13.326;2023-04-25T10:58:42;13.30;99.90
15749;DHT22;7976;52.526;13.326;2023-04-25T11:01:09;13.50;99.90
15749;DHT22;7976;52.526;13.326;2023-04-25T11:03:40;13.60;99.90
15749;DHT22;7976;52.526;13.326;2023-04-25T11:06:16;13.80;99.90
15749;DHT22;7976;52.526;13.326;2023-04-25T11:08:50;13.80;99.90
15749;DHT22;7976;52.526;13.326;2023-04-25T11:11:18;13.60;99.90
15749;DHT22;7976;52.526;13.326;2023-04-25T11:13:48;13.30;99.90
15749;DHT22;7976;52.526;13.326;2023-04-25T11:16:16;12.90;99.90
15749;DHT22;7976;52.526;13.326;2023-04-25T11:18:43;12.50;99.90
15749;DHT22;7976;52.526;13.326;2023-04-25T11:21:13;12.30;99.90
15749;DHT22;7976;52.526;13.326;2023-04-25T11:23:39;12.20;99.90
15749;DHT22;7976;52.526;13.326;2023-04-25T11:26:06;12.00;99.90
15749;DHT22;7976;52.526;13.326;2023-04-25T11:28:33;12.00;99.90
15749;DHT22;7976;52.526;13.326;2023-04-25T11:31:02;12.00;99.90
15749;DHT22;7976;52.526;13.326;2023-04-25T11:33:30;12.00;99.90
15749;DHT22;7976;52.526;13.326;2023-04-25T11:35:58;12.10;99.90
15749;DHT22;7976;52.526;13.326;2023-04-25T11:38:26;12.20;99.90
15749;DHT22;7976;52.526;13.326;2023-04-25T11:40:53;12.40;99.90
15749;DHT22;7976;52.526;13.326;2023-04-25T11:43:21;12.50;99.90
15749;DHT22;7976;52.526;13.326;2023-04-25T11:45:48;12.70;99.70
15749;DHT22;7976;52.526;13.326;2023-04-25T11:48:17;12.70;99.30
15749;DHT22;7976;52.526;13.326;2023-04-25T11:50:44;12.80;99.60
15749;DHT22;7976;52.526;13.326;2023-04-25T11:53:11;13.00;99.40
15749;DHT22;7976;52.526;13.326;2023-04-25T11:55:39;12.90;99.60
15749;DHT22;7976;52.526;13.326;2023-04-25T11:58:06;12.90;99.50
15749;DHT22;7976;52.526;13.326;2023-04-25T12:00:35;13.00;99.70
15749;DHT22;7976;52.526;13.326;2023-04-25T12:03:02;13.10;99.70
15749;DHT22;7976;52.526;13.326;2023-04-25T12:05:30;13.20;99.90
15749;DHT22;7976;52.526;13.326;2023-04-25T12:08:10;13.30;99.90
15749;DHT22;7976;52.526;13.326;2023-04-25T12:10:40;13.20;99.70
15749;DHT22;7976;52.526;13.326;2023-04-25T12:13:21;13.00;99.90
15749;DHT22;7976;52.526;13.326;2023-04-25T12:15:50;12.70;99.60
15749;DHT22;7976;52.526;13.326;2023-04-25T12:18:19;12.60;99.10
15749;DHT22;7976;52.526;13.326;2023-04-25T12:20:47;12.40;98.90
15749;DHT22;7976;52.526;13.326;2023-04-25T12:23:14;12.40;98.90
15749;DHT22;7976;52.526;13.326;2023-04-25T12:25:43;12.40;99.40
15749;DHT22;7976;52.526;13.326;2023-04-25T12:28:13;12.60;99.10
15749;DHT22;7976;52.526;13.326;2023-04-25T12:30:55;12.80;98.80
15749;DHT22;7976;52.526;13.326;2023-04-25T12:33:24;13.00;98.50
15749;DHT22;7976;52.526;13.326;2023-04-25T12:35:52;13.10;98.30
15749;DHT22;7976;52.526;13.326;2023-04-25T12:38:23;13.30;98.60
15749;DHT22;7976;52.526;13.326;2023-04-25T12:40:52;13.30;98.40
15749;DHT22;7976;52.526;13.326;2023-04-25T12:43:20;13.30;98.30
15749;DHT22;7976;52.526;13.326;2023-04-25T12:45:48;13.30;98.40
15749;DHT22;7976;52.526;13.326;2023-04-25T12:48:16;13.20;98.10
15749;DHT22;7976;52.526;13.326;2023-04-25T12:50:43;13.00;98.30
15749;DHT22;7976;52.526;13.326;2023-04-25T12:53:13;13.00;98.00
15749;DHT22;7976;52.526;13.326;2023-04-25T12:55:40;12.90;97.40
15749;DHT22;7976;52.526;13.326;2023-04-25T12:58:08;12.70;97.40
15749;DHT22;7976;52.526;13.326;2023-04-25T13:00:35;12.70;97.60
15749;DHT22;7976;52.526;13.326;2023-04-25T13:03:03;12.70;98.00
15749;DHT22;7976;52.526;13.326;2023-04-25T13:05:30;12.90;98.00
15749;DHT22;7976;52.526;13.326;2023-04-25T13:07:57;13.00;97.90
15749;DHT22;7976;52.526;13.326;2023-04-25T13:10:24;13.20;98.00
15749;DHT22;7976;52.526;13.326;2023-04-25T13:12:51;13.30;97.80
15749;DHT22;7976;52.526;13.326;2023-04-25T13:15:19;13.30;98.20
15749;DHT22;7976;52.526;13.326;2023-04-25T13:17:47;13.30;97.30
15749;DHT22;7976;52.526;13.326;2023-04-25T13:20:14;13.30;97.20
15749;DHT22;7976;52.526;13.326;2023-04-25T13:22:42;13.10;97.10
15749;DHT22;7976;52.526;13.326;2023-04-25T13:25:11;13.10;97.30
15749;DHT22;7976;52.526;13.326;2023-04-25T13:27:37;12.90;97.60
15749;DHT22;7976;52.526;13.326;2023-04-25T13:30:07;13.00;98.00
15749;DHT22;7976;52.526;13.326;2023-04-25T13:32:36;13.10;97.80
15749;DHT22;7976;52.526;13.326;2023-04-25T13:35:04;13.00;98.00
15749;DHT22;7976;52.526;13.326;2023-04-25T13:37:31;13.10;98.10
15749;DHT22;7976;52.526;13.326;2023-04-25T13:39:59;13.10;98.40
15749;DHT22;7976;52.526;13.326;2023-04-25T13:42:26;13.10;98.40
15749;DHT22;7976;52.526;13.326;2023-04-25T13:44:53;13.00;98.40
15749;DHT22;7976;52.526;13.326;2023-04-25T13:47:20;13.10;98.70
15749;DHT22;7976;52.526;13.326;2023-04-25T13:49:49;13.40;99.00
15749;DHT22;7976;52.526;13.326;2023-04-25T13:52:16;13.60;98.80
15749;DHT22;7976;52.526;13.326;2023-04-25T13:54:43;13.70;98.60
15749;DHT22;7976;52.526;13.326;2023-04-25T13:57:10;13.60;98.40
15749;DHT22;7976;52.526;13.326;2023-04-25T13:59:37;13.50;98.40
15749;DHT22;7976;52.526;13.326;2023-04-25T14:02:04;13.40;98.60
15749;DHT22;7976;52.526;13.326;2023-04-25T14:04:31;13.40;98.70
15749;DHT22;7976;52.526;13.326;2023-04-25T14:06:59;13.30;99.00
15749;DHT22;7976;52.526;13.326;2023-04-25T14:09:27;13.10;99.10
15749;DHT22;7976;52.526;13.326;2023-04-25T14:11:55;12.90;98.90
15749;DHT22;7976;52.526;13.326;2023-04-25T14:14:22;12.70;99.00
15749;DHT22;7976;52.526;13.326;2023-04-25T14:16:50;12.70;99.20
15749;DHT22;7976;52.526;13.326;2023-04-25T14:19:19;12.60;99.40
15749;DHT22;7976;52.526;13.326;2023-04-25T14:21:47;12.50;99.50
15749;DHT22;7976;52.526;13.326;2023-04-25T14:24:15;12.50;99.80
15749;DHT22;7976;52.526;13.326;2023-04-25T14:26:42;12.40;99.60
15749;DHT22;7976;52.526;13.326;2023-04-25T14:29:10;12.50;99.80
15749;DHT22;7976;52.526;13.326;2023-04-25T14:31:38;12.50;99.50
15749;DHT22;7976;52.526;13.326;2023-04-25T14:34:06;12.60;99.30
15749;DHT22;7976;52.526;13.326;2023-04-25T14:36:35;12.70;99.10
15749;DHT22;7976;52.526;13.326;2023-04-25T14:39:03;12.60;99.20
15749;DHT22;7976;52.526;13.326;2023-04-25T14:41:33;12.60;99.10
15749;DHT22;7976;52.526;13.326;2023-04-25T14:43:59;12.60;99.30
15749;DHT22;7976;52.526;13.326;2023-04-25T14:46:26;12.60;99.60
15749;DHT22;7976;52.526;13.326;2023-04-25T14:48:54;12.60;99.70
15749;DHT22;7976;52.526;13.326;2023-04-25T14:51:21;12.40;99.70
15749;DHT22;7976;52.526;13.326;2023-04-25T14:53:48;12.30;99.90
15749;DHT22;7976;52.526;13.326;2023-04-25T14:56:15;12.00;99.90
15749;DHT22;7976;52.526;13.326;2023-04-25T14:58:43;11.90;99.90
15749;DHT22;7976;52.526;13.326;2023-04-25T15:01:10;11.70;99.90
15749;DHT22;7976;52.526;13.326;2023-04-25T15:03:38;11.60;99.90
15749;DHT22;7976;52.526;13.326;2023-04-25T15:06:06;11.50;99.90
15749;DHT22;7976;52.526;13.326;2023-04-25T15:08:33;11.50;99.90
15749;DHT22;7976;52.526;13.326;2023-04-25T15:11:00;11.50;99.90
15749;DHT22;7976;52.526;13.326;2023-04-25T15:13:27;11.40;99.90
15749;DHT22;7976;52.526;13.326;2023-04-25T15:15:56;11.50;99.90
15749;DHT22;7976;52.526;13.326;2023-04-25T15:18:23;11.50;99.90
15749;DHT22;7976;52.526;13.326;2023-04-25T15:20:50;11.50;99.90
15749;DHT22;7976;52.526;13.326;2023-04-25T15:23:17;11.60;99.90
15749;DHT22;7976;52.526;13.326;2023-04-25T15:25:45;11.70;99.90
15749;DHT22;7976;52.526;13.326;2023-04-25T15:28:12;11.80;99.90
15749;DHT22;7976;52.526;13.326;2023-04-25T15:30:41;12.00;99.90
15749;DHT22;7976;52.526;13.326;2023-04-25T15:33:09;12.10;99.90
15749;DHT22;7976;52.526;13.326;2023-04-25T15:35:36;12.00;99.90
15749;DHT22;7976;52.526;13.326;2023-04-25T15:38:03;12.00;99.90
15749;DHT22;7976;52.526;13.326;2023-04-25T15:40:29;11.90;99.90
15749;DHT22;7976;52.526;13.326;2023-04-25T15:42:57;11.80;99.90
15749;DHT22;7976;52.526;13.326;2023-04-25T15:45:24;11.70;99.90
15749;DHT22;7976;52.526;13.326;2023-04-25T15:47:53;11.60;99.90
15749;DHT22;7976;52.526;13.326;2023-04-25T15:50:23;11.50;99.90
15749;DHT22;7976;52.526;13.326;2023-04-25T15:52:51;11.40;99.90
15749;DHT22;7976;52.526;13.326;2023-04-25T15:55:19;11.30;99.90
15749;DHT22;7976;52.526;13.326;2023-04-25T15:57:48;11.20;99.90